sensor_id;sensor_type;location;lat;lon;timestamp;temperature;humidity
18091;DHT22;9172;49.948;9.208;2022-09-09T00:01:05;16.40;99.90
18091;DHT22;9172;49.948;9.208;2022-09-09T00:03:37;16.40;99.90
18091;DHT22;9172;49.948;9.208;2022-09-09T00:06:08;16.40;99.90
18091;DHT22;9172;49.948;9.208;2022-09-09T00:08:47;16.40;99.90
18091;DHT22;9172;49.948;9.208;2022-09-09T00:11:13;16.40;99.90
18091;DHT22;9172;49.948;9.208;2022-09-09T00:13:46;16.40;99.90
18091;DHT22;9172;49.948;9.208;2022-09-09T00:16:19;16.40;99.90
18091;DHT22;9172;49.948;9.208;2022-09-09T00:18:56;16.40;99.90
18091;DHT22;9172;49.948;9.208;2022-09-09T00:21:28;16.40;99.90
18091;DHT22;9172;49.948;9.208;2022-09-09T00:23:57;16.40;99.90
18091;DHT22;9172;49.948;9.208;2022-09-09T00:26:32;16.40;99.90
18091;DHT22;9172;49.948;9.208;2022-09-09T00:29:05;16.40;99.90
18091;DHT22;9172;49.948;9.208;2022-09-09T00:31:34;16.40;99.90
18091;DHT22;9172;49.948;9.208;2022-09-09T00:34:09;16.40;99.90
18091;DHT22;9172;49.948;9.208;2022-09-09T00:36:39;16.40;99.90
18091;DHT22;9172;49.948;9.208;2022-09-09T00:39:13;16.40;99.90
18091;DHT22;9172;49.948;9.208;2022-09-09T00:41:49;16.40;99.90
18091;DHT22;9172;49.948;9.208;2022-09-09T00:44:24;16.40;99.90
18091;DHT22;9172;49.948;9.208;2022-09-09T00:47:15;16.40;99.90
18091;DHT22;9172;49.948;9.208;2022-09-09T00:49:49;16.40;99.90
18091;DHT22;9172;49.948;9.208;2022-09-09T00:52:25;16.40;99.90
18091;DHT22;9172;49.948;9.208;2022-09-09T00:54:57;16.40;99.90
18091;DHT22;9172;49.948;9.208;2022-09-09T00:57:28;16.40;99.90
18091;DHT22;9172;49.948;9.208;2022-09-09T01:02:35;16.40;99.90
18091;DHT22;9172;49.948;9.208;2022-09-09T01:05:12;16.40;99.90
18091;DHT22;9172;49.948;9.208;2022-09-09T01:07:38;16.40;99.90
18091;DHT22;9172;49.948;9.208;2022-09-09T01:10:10;16.40;99.90
18091;DHT22;9172;49.948;9.208;2022-09-09T01:12:42;16.40;99.90
18091;DHT22;9172;49.948;9.208;2022-09-09T01:15:13;16.40;99.90
18091;DHT22;9172;49.948;9.208;2022-09-09T01:17:58;16.30;99.90
18091;DHT22;9172;49.948;9.208;2022-09-09T01:20:28;16.30;99.90
18091;DHT22;9172;49.948;9.208;2022-09-09T01:23:08;16.40;99.90
18091;DHT22;9172;49.948;9.208;2022-09-09T01:28:51;16.40;99.90
18091;DHT22;9172;49.948;9.208;2022-09-09T01:31:23;16.40;99.90
18091;DHT22;9172;49.948;9.208;2022-09-09T01:33:54;16.40;99.90
18091;DHT22;9172;49.948;9.208;2022-09-09T01:36:29;16.40;99.90
18091;DHT22;9172;49.948;9.208;2022-09-09T01:39:00;16.40;99.90
18091;DHT22;9172;49.948;9.208;2022-09-09T01:41:29;16.40;99.90
18091;DHT22;9172;49.948;9.208;2022-09-09T01:43:58;16.40;99.90
18091;DHT22;9172;49.948;9.208;2022-09-09T01:46:28;16.50;99.90
18091;DHT22;9172;49.948;9.208;2022-09-09T01:48:59;16.50;99.90
18091;DHT22;9172;49.948;9.208;2022-09-09T01:51:29;16.50;99.90
18091;DHT22;9172;49.948;9.208;2022-09-09T01:53:58;16.60;99.90
18091;DHT22;9172;49.948;9.208;2022-09-09T01:56:34;16.60;99.90
18091;DHT22;9172;49.948;9.208;2022-09-09T01:59:13;16.60;99.90
18091;DHT22;9172;49.948;9.208;2022-09-09T02:01:52;16.60;99.90
18091;DHT22;9172;49.948;9.208;2022-09-09T02:04:30;16.60;99.90
18091;DHT22;9172;49.948;9.208;2022-09-09T02:06:59;16.60;99.90
18091;DHT22;9172;49.948;9.208;2022-09-09T02:09:30;16.60;99.90
18091;DHT22;9172;49.948;9.208;2022-09-09T02:12:02;16.60;99.90
18091;DHT22;9172;49.948;9.208;2022-09-09T02:14:34;16.60;99.90
18091;DHT22;9172;49.948;9.208;2022-09-09T02:17:07;16.60;99.90
18091;DHT22;9172;49.948;9.208;2022-09-09T02:19:39;16.60;99.90
18091;DHT22;9172;49.948;9.208;2022-09-09T02:22:08;16.60;99.90
18091;DHT22;9172;49.948;9.208;2022-09-09T02:24:38;16.60;99.90
18091;DHT22;9172;49.948;9.208;2022-09-09T02:27:10;16.60;99.90
18091;DHT22;9172;49.948;9.208;2022-09-09T02:29:41;16.60;99.90
18091;DHT22;9172;49.948;9.208;2022-09-09T02:32:12;16.60;99.90
18091;DHT22;9172;49.948;9.208;2022-09-09T02:34:44;16.60;99.90
18091;DHT22;9172;49.948;9.208;2022-09-09T02:37:16;16.60;99.90
18091;DHT22;9172;49.948;9.208;2022-09-09T02:39:46;16.60;99.90
18091;DHT22;9172;49.948;9.208;2022-09-09T02:42:15;16.60;99.90
18091;DHT22;9172;49.948;9.208;2022-09-09T02:44:44;16.60;99.90
18091;DHT22;9172;49.948;9.208;2022-09-09T02:47:22;16.60;99.90
18091;DHT22;9172;49.948;9.208;2022-09-09T02:49:57;16.60;99.90
18091;DHT22;9172;49.948;9.208;2022-09-09T02:52:35;16.60;99.90
18091;DHT22;9172;49.948;9.208;2022-09-09T02:55:08;16.50;99.90
18091;DHT22;9172;49.948;9.208;2022-09-09T02:57:37;16.50;99.90
18091;DHT22;9172;49.948;9.208;2022-09-09T03:00:10;16.60;99.90
18091;DHT22;9172;49.948;9.208;2022-09-09T03:02:40;16.50;99.90
18091;DHT22;9172;49.948;9.208;2022-09-09T03:05:09;16.50;99.90
18091;DHT22;9172;49.948;9.208;2022-09-09T03:07:38;16.50;99.90
18091;DHT22;9172;49.948;9.208;2022-09-09T03:10:08;16.50;99.90
18091;DHT22;9172;49.948;9.208;2022-09-09T03:12:38;16.50;99.90
18091;DHT22;9172;49.948;9.208;2022-09-09T03:15:09;16.50;99.90
18091;DHT22;9172;49.948;9.208;2022-09-09T03:17:38;16.50;99.90
18091;DHT22;9172;49.948;9.208;2022-09-09T03:20:07;16.50;99.90
18091;DHT22;9172;49.948;9.208;2022-09-09T03:22:36;16.50;99.90
18091;DHT22;9172;49.948;9.208;2022-09-09T03:25:05;16.50;99.90
18091;DHT22;9172;49.948;9.208;2022-09-09T03:27:34;16.50;99.90
18091;DHT22;9172;49.948;9.208;2022-09-09T03:30:05;16.50;99.90
18091;DHT22;9172;49.948;9.208;2022-09-09T03:32:34;15.80;99.90
18091;DHT22;9172;49.948;9.208;2022-09-09T03:35:03;16.40;99.90
18091;DHT22;9172;49.948;9.208;2022-09-09T03:37:32;16.40;99.90
18091;DHT22;9172;49.948;9.208;2022-09-09T03:40:01;16.40;99.90
18091;DHT22;9172;49.948;9.208;2022-09-09T03:42:30;16.40;99.90
18091;DHT22;9172;49.948;9.208;2022-09-09T03:44:59;16.40;99.90
18091;DHT22;9172;49.948;9.208;2022-09-09T03:47:28;16.40;99.90
18091;DHT22;9172;49.948;9.208;2022-09-09T03:49:57;16.50;99.90
18091;DHT22;9172;49.948;9.208;2022-09-09T03:52:25;16.50;99.90
18091;DHT22;9172;49.948;9.208;2022-09-09T03:54:54;16.50;99.90
18091;DHT22;9172;49.948;9.208;2022-09-09T03:57:24;16.50;99.90
18091;DHT22;9172;49.948;9.208;2022-09-09T03:59:52;16.50;99.90
18091;DHT22;9172;49.948;9.208;2022-09-09T04:02:21;16.40;99.90
18091;DHT22;9172;49.948;9.208;2022-09-09T04:04:50;16.40;99.90
18091;DHT22;9172;49.948;9.208;2022-09-09T04:07:20;16.30;99.90
18091;DHT22;9172;49.948;9.208;2022-09-09T04:09:49;16.30;99.90
18091;DHT22;9172;49.948;9.208;2022-09-09T04:12:19;16.30;99.90
18091;DHT22;9172;49.948;9.208;2022-09-09T04:14:48;16.30;99.90
18091;DHT22;9172;49.948;9.208;2022-09-09T04:17:16;16.30;99.90
18091;DHT22;9172;49.948;9.208;2022-09-09T04:19:45;16.20;99.90
18091;DHT22;9172;49.948;9.208;2022-09-09T04:22:13;16.30;99.90
18091;DHT22;9172;49.948;9.208;2022-09-09T04:24:43;16.30;99.90
18091;DHT22;9172;49.948;9.208;2022-09-09T04:27:11;16.30;99.90
18091;DHT22;9172;49.948;9.208;2022-09-09T04:29:40;16.30;99.90
18091;DHT22;9172;49.948;9.208;2022-09-09T04:32:08;16.30;99.90
18091;DHT22;9172;49.948;9.208;2022-09-09T04:34:37;16.30;99.90
18091;DHT22;9172;49.948;9.208;2022-09-09T04:37:05;16.30;99.90
18091;DHT22;9172;49.948;9.208;2022-09-09T04:39:34;16.30;99.90
18091;DHT22;9172;49.948;9.208;2022-09-09T04:42:03;16.20;99.90
18091;DHT22;9172;49.948;9.208;2022-09-09T04:44:32;16.10;99.90
18091;DHT22;9172;49.948;9.208;2022-09-09T04:47:02;16.10;99.90
18091;DHT22;9172;49.948;9.208;2022-09-09T04:49:31;16.10;99.90
18091;DHT22;9172;49.948;9.208;2022-09-09T04:52:00;16.20;99.90
18091;DHT22;9172;49.948;9.208;2022-09-09T04:54:29;16.20;99.90
18091;DHT22;9172;49.948;9.208;2022-09-09T04:56:58;16.20;99.90
18091;DHT22;9172;49.948;9.208;2022-09-09T04:59:26;16.10;99.90
18091;DHT22;9172;49.948;9.208;2022-09-09T05:01:56;16.10;99.90
18091;DHT22;9172;49.948;9.208;2022-09-09T05:04:25;16.10;99.90
18091;DHT22;9172;49.948;9.208;2022-09-09T05:06:53;16.10;99.90
18091;DHT22;9172;49.948;9.208;2022-09-09T05:09:22;16.00;99.90
18091;DHT22;9172;49.948;9.208;2022-09-09T05:11:50;16.00;99.90
18091;DHT22;9172;49.948;9.208;2022-09-09T05:14:19;16.00;99.90
18091;DHT22;9172;49.948;9.208;2022-09-09T05:16:48;16.00;99.90
18091;DHT22;9172;49.948;9.208;2022-09-09T05:19:17;16.00;99.90
18091;DHT22;9172;49.948;9.208;2022-09-09T05:21:47;16.00;99.90
18091;DHT22;9172;49.948;9.208;2022-09-09T05:24:16;16.00;99.90
18091;DHT22;9172;49.948;9.208;2022-09-09T05:26:44;16.00;99.90
18091;DHT22;9172;49.948;9.208;2022-09-09T05:29:13;16.00;99.90
18091;DHT22;9172;49.948;9.208;2022-09-09T05:31:44;16.00;99.90
18091;DHT22;9172;49.948;9.208;2022-09-09T05:34:12;16.00;99.90
18091;DHT22;9172;49.948;9.208;2022-09-09T05:36:41;16.00;99.90
18091;DHT22;9172;49.948;9.208;2022-09-09T05:39:09;16.10;99.90
18091;DHT22;9172;49.948;9.208;2022-09-09T05:41:39;16.10;99.90
18091;DHT22;9172;49.948;9.208;2022-09-09T05:44:07;16.10;99.90
18091;DHT22;9172;49.948;9.208;2022-09-09T05:46:36;16.10;99.90
18091;DHT22;9172;49.948;9.208;2022-09-09T05:49:04;16.10;99.90
18091;DHT22;9172;49.948;9.208;2022-09-09T05:51:34;16.20;99.90
18091;DHT22;9172;49.948;9.208;2022-09-09T05:54:03;16.20;99.90
18091;DHT22;9172;49.948;9.208;2022-09-09T05:56:32;16.20;99.90
18091;DHT22;9172;49.948;9.208;2022-09-09T05:59:01;16.20;99.90
18091;DHT22;9172;49.948;9.208;2022-09-09T06:01:31;16.20;99.90
18091;DHT22;9172;49.948;9.208;2022-09-09T06:04:00;16.20;99.90
18091;DHT22;9172;49.948;9.208;2022-09-09T06:06:31;16.20;99.90
18091;DHT22;9172;49.948;9.208;2022-09-09T06:09:04;16.20;99.90
18091;DHT22;9172;49.948;9.208;2022-09-09T06:11:34;16.20;99.90
18091;DHT22;9172;49.948;9.208;2022-09-09T06:14:04;16.30;99.90
18091;DHT22;9172;49.948;9.208;2022-09-09T06:16:34;16.30;99.90
18091;DHT22;9172;49.948;9.208;2022-09-09T06:19:05;16.30;99.90
18091;DHT22;9172;49.948;9.208;2022-09-09T06:21:35;16.30;99.90
18091;DHT22;9172;49.948;9.208;2022-09-09T06:24:05;16.30;99.90
18091;DHT22;9172;49.948;9.208;2022-09-09T06:26:35;16.40;99.90
18091;DHT22;9172;49.948;9.208;2022-09-09T06:29:05;16.40;99.90
18091;DHT22;9172;49.948;9.208;2022-09-09T06:31:35;16.40;99.90
18091;DHT22;9172;49.948;9.208;2022-09-09T06:34:06;16.40;99.90
18091;DHT22;9172;49.948;9.208;2022-09-09T06:36:38;16.40;99.90
18091;DHT22;9172;49.948;9.208;2022-09-09T06:39:08;16.50;99.90
18091;DHT22;9172;49.948;9.208;2022-09-09T06:41:38;16.50;99.90
18091;DHT22;9172;49.948;9.208;2022-09-09T06:44:07;16.50;99.90
18091;DHT22;9172;49.948;9.208;2022-09-09T06:46:38;16.50;99.90
18091;DHT22;9172;49.948;9.208;2022-09-09T06:49:08;16.50;99.90
18091;DHT22;9172;49.948;9.208;2022-09-09T06:51:38;16.60;99.90
18091;DHT22;9172;49.948;9.208;2022-09-09T06:54:09;16.60;99.90
18091;DHT22;9172;49.948;9.208;2022-09-09T06:56:39;16.60;99.90
18091;DHT22;9172;49.948;9.208;2022-09-09T06:59:10;16.60;99.90
18091;DHT22;9172;49.948;9.208;2022-09-09T07:01:41;16.60;99.90
18091;DHT22;9172;49.948;9.208;2022-09-09T07:04:11;16.70;99.90
18091;DHT22;9172;49.948;9.208;2022-09-09T07:06:42;16.70;99.90
18091;DHT22;9172;49.948;9.208;2022-09-09T07:09:12;16.70;99.90
18091;DHT22;9172;49.948;9.208;2022-09-09T07:11:43;16.70;99.90
18091;DHT22;9172;49.948;9.208;2022-09-09T07:14:12;16.80;99.90
18091;DHT22;9172;49.948;9.208;2022-09-09T07:16:41;16.80;99.90
18091;DHT22;9172;49.948;9.208;2022-09-09T07:19:10;16.80;99.90
18091;DHT22;9172;49.948;9.208;2022-09-09T07:21:40;16.80;99.90
18091;DHT22;9172;49.948;9.208;2022-09-09T07:24:08;16.80;99.90
18091;DHT22;9172;49.948;9.208;2022-09-09T07:26:39;16.90;99.90
18091;DHT22;9172;49.948;9.208;2022-09-09T07:29:08;16.90;99.90
18091;DHT22;9172;49.948;9.208;2022-09-09T07:31:38;16.90;99.90
18091;DHT22;9172;49.948;9.208;2022-09-09T07:34:07;16.90;99.90
18091;DHT22;9172;49.948;9.208;2022-09-09T07:36:37;16.90;99.90
18091;DHT22;9172;49.948;9.208;2022-09-09T07:39:08;16.90;99.90
18091;DHT22;9172;49.948;9.208;2022-09-09T07:41:39;16.90;99.90
18091;DHT22;9172;49.948;9.208;2022-09-09T07:44:10;17.00;99.90
18091;DHT22;9172;49.948;9.208;2022-09-09T07:46:41;17.00;99.90
18091;DHT22;9172;49.948;9.208;2022-09-09T07:49:11;17.00;99.90
18091;DHT22;9172;49.948;9.208;2022-09-09T07:51:41;17.00;99.90
18091;DHT22;9172;49.948;9.208;2022-09-09T07:54:13;17.00;99.90
18091;DHT22;9172;49.948;9.208;2022-09-09T07:56:42;17.10;99.90
18091;DHT22;9172;49.948;9.208;2022-09-09T07:59:12;17.20;99.90
18091;DHT22;9172;49.948;9.208;2022-09-09T08:01:43;17.40;99.90
18091;DHT22;9172;49.948;9.208;2022-09-09T08:04:14;17.50;99.90
18091;DHT22;9172;49.948;9.208;2022-09-09T08:06:45;17.50;99.90
18091;DHT22;9172;49.948;9.208;2022-09-09T08:09:15;17.60;99.90
18091;DHT22;9172;49.948;9.208;2022-09-09T08:11:44;17.60;99.90
18091;DHT22;9172;49.948;9.208;2022-09-09T08:14:14;17.60;99.90
18091;DHT22;9172;49.948;9.208;2022-09-09T08:16:44;17.60;99.90
18091;DHT22;9172;49.948;9.208;2022-09-09T08:19:15;17.60;99.90
18091;DHT22;9172;49.948;9.208;2022-09-09T08:21:44;17.60;99.90
18091;DHT22;9172;49.948;9.208;2022-09-09T08:24:14;17.60;99.90
18091;DHT22;9172;49.948;9.208;2022-09-09T08:26:44;17.60;99.90
18091;DHT22;9172;49.948;9.208;2022-09-09T08:29:15;17.60;99.90
18091;DHT22;9172;49.948;9.208;2022-09-09T08:31:46;17.60;99.90
18091;DHT22;9172;49.948;9.208;2022-09-09T08:34:16;17.60;99.90
18091;DHT22;9172;49.948;9.208;2022-09-09T08:36:48;17.50;99.90
18091;DHT22;9172;49.948;9.208;2022-09-09T08:39:19;17.50;99.90
18091;DHT22;9172;49.948;9.208;2022-09-09T08:42:04;17.50;99.90
18091;DHT22;9172;49.948;9.208;2022-09-09T08:47:22;17.70;99.90
18091;DHT22;9172;49.948;9.208;2022-09-09T08:50:17;17.80;99.90
18091;DHT22;9172;49.948;9.208;2022-09-09T08:52:54;17.90;99.90
18091;DHT22;9172;49.948;9.208;2022-09-09T08:55:27;17.90;99.90
18091;DHT22;9172;49.948;9.208;2022-09-09T08:58:00;17.90;99.90
18091;DHT22;9172;49.948;9.208;2022-09-09T09:03:14;17.90;99.90
18091;DHT22;9172;49.948;9.208;2022-09-09T09:05:50;18.00;99.90
18091;DHT22;9172;49.948;9.208;2022-09-09T09:08:24;18.00;99.90
18091;DHT22;9172;49.948;9.208;2022-09-09T09:10:54;18.20;99.90
18091;DHT22;9172;49.948;9.208;2022-09-09T09:13:26;18.40;99.90
18091;DHT22;9172;49.948;9.208;2022-09-09T09:15:58;18.60;99.90
18091;DHT22;9172;49.948;9.208;2022-09-09T09:18:29;18.80;99.90
18091;DHT22;9172;49.948;9.208;2022-09-09T09:23:42;19.10;99.90
18091;DHT22;9172;49.948;9.208;2022-09-09T09:26:10;19.20;99.90
18091;DHT22;9172;49.948;9.208;2022-09-09T09:28:41;19.20;99.90
18091;DHT22;9172;49.948;9.208;2022-09-09T09:31:11;19.10;99.90
18091;DHT22;9172;49.948;9.208;2022-09-09T09:33:46;19.10;99.90
18091;DHT22;9172;49.948;9.208;2022-09-09T09:36:17;19.20;99.90
18091;DHT22;9172;49.948;9.208;2022-09-09T09:38:54;19.40;99.90
18091;DHT22;9172;49.948;9.208;2022-09-09T09:41:34;19.40;99.90
18091;DHT22;9172;49.948;9.208;2022-09-09T09:44:04;19.40;99.90
18091;DHT22;9172;49.948;9.208;2022-09-09T09:46:36;19.40;99.90
18091;DHT22;9172;49.948;9.208;2022-09-09T09:49:09;19.40;99.90
18091;DHT22;9172;49.948;9.208;2022-09-09T09:51:38;19.30;99.90
18091;DHT22;9172;49.948;9.208;2022-09-09T09:54:14;19.30;99.90
18091;DHT22;9172;49.948;9.208;2022-09-09T09:56:44;19.40;99.90
18091;DHT22;9172;49.948;9.208;2022-09-09T09:59:32;19.40;99.90
18091;DHT22;9172;49.948;9.208;2022-09-09T10:01:54;19.50;99.90
18091;DHT22;9172;49.948;9.208;2022-09-09T10:04:23;19.50;99.90
18091;DHT22;9172;49.948;9.208;2022-09-09T10:06:52;19.30;99.90
18091;DHT22;9172;49.948;9.208;2022-09-09T10:09:25;19.20;99.90
18091;DHT22;9172;49.948;9.208;2022-09-09T10:12:00;19.20;99.90
18091;DHT22;9172;49.948;9.208;2022-09-09T10:14:32;19.30;99.90
18091;DHT22;9172;49.948;9.208;2022-09-09T10:17:12;19.30;99.90
18091;DHT22;9172;49.948;9.208;2022-09-09T10:19:42;19.20;99.90
18091;DHT22;9172;49.948;9.208;2022-09-09T10:22:26;19.20;99.90
18091;DHT22;9172;49.948;9.208;2022-09-09T10:27:58;19.60;99.90
18091;DHT22;9172;49.948;9.208;2022-09-09T10:30:30;19.90;99.90
18091;DHT22;9172;49.948;9.208;2022-09-09T10:35:39;20.30;99.90
18091;DHT22;9172;49.948;9.208;2022-09-09T10:41:18;20.50;99.90
18091;DHT22;9172;49.948;9.208;2022-09-09T10:46:48;20.50;99.90
18091;DHT22;9172;49.948;9.208;2022-09-09T10:49:23;20.40;99.90
18091;DHT22;9172;49.948;9.208;2022-09-09T10:51:55;20.30;99.90
18091;DHT22;9172;49.948;9.208;2022-09-09T10:54:32;20.10;99.90
18091;DHT22;9172;49.948;9.208;2022-09-09T10:57:03;20.00;99.90
18091;DHT22;9172;49.948;9.208;2022-09-09T10:59:37;20.00;99.90
18091;DHT22;9172;49.948;9.208;2022-09-09T11:02:10;19.90;99.90
18091;DHT22;9172;49.948;9.208;2022-09-09T11:04:41;19.90;99.90
18091;DHT22;9172;49.948;9.208;2022-09-09T11:07:13;20.10;99.90
18091;DHT22;9172;49.948;9.208;2022-09-09T11:09:49;20.30;99.90
18091;DHT22;9172;49.948;9.208;2022-09-09T11:12:19;20.40;99.90
18091;DHT22;9172;49.948;9.208;2022-09-09T11:14:50;20.40;99.90
18091;DHT22;9172;49.948;9.208;2022-09-09T11:17:21;20.30;99.90
18091;DHT22;9172;49.948;9.208;2022-09-09T11:19:51;20.50;99.90
18091;DHT22;9172;49.948;9.208;2022-09-09T11:25:03;20.50;99.90
18091;DHT22;9172;49.948;9.208;2022-09-09T11:27:35;20.40;99.90
18091;DHT22;9172;49.948;9.208;2022-09-09T11:30:16;20.50;99.90
18091;DHT22;9172;49.948;9.208;2022-09-09T11:35:45;20.60;99.90
18091;DHT22;9172;49.948;9.208;2022-09-09T11:38:20;20.60;99.90
18091;DHT22;9172;49.948;9.208;2022-09-09T11:40:57;20.70;99.90
18091;DHT22;9172;49.948;9.208;2022-09-09T11:43:31;20.70;99.90
18091;DHT22;9172;49.948;9.208;2022-09-09T11:46:02;20.70;99.90
18091;DHT22;9172;49.948;9.208;2022-09-09T11:48:33;20.70;99.90
18091;DHT22;9172;49.948;9.208;2022-09-09T11:51:06;20.70;99.90
18091;DHT22;9172;49.948;9.208;2022-09-09T11:53:47;20.80;99.90
18091;DHT22;9172;49.948;9.208;2022-09-09T11:56:12;20.80;99.90
18091;DHT22;9172;49.948;9.208;2022-09-09T11:58:54;20.90;99.90
18091;DHT22;9172;49.948;9.208;2022-09-09T12:01:40;20.90;99.90
18091;DHT22;9172;49.948;9.208;2022-09-09T12:04:33;21.00;99.90
18091;DHT22;9172;49.948;9.208;2022-09-09T12:07:20;21.00;99.90
18091;DHT22;9172;49.948;9.208;2022-09-09T12:09:44;21.10;99.90
18091;DHT22;9172;49.948;9.208;2022-09-09T12:12:34;21.10;99.90
18091;DHT22;9172;49.948;9.208;2022-09-09T12:15:20;21.10;99.90
18091;DHT22;9172;49.948;9.208;2022-09-09T12:17:50;21.20;99.90
18091;DHT22;9172;49.948;9.208;2022-09-09T12:20:22;21.20;99.90
18091;DHT22;9172;49.948;9.208;2022-09-09T12:26:00;21.20;99.50
18091;DHT22;9172;49.948;9.208;2022-09-09T12:28:47;21.20;99.30
18091;DHT22;9172;49.948;9.208;2022-09-09T12:31:19;21.30;98.90
18091;DHT22;9172;49.948;9.208;2022-09-09T12:33:49;21.30;98.90
18091;DHT22;9172;49.948;9.208;2022-09-09T12:36:22;21.20;98.60
18091;DHT22;9172;49.948;9.208;2022-09-09T12:38:51;21.10;98.70
18091;DHT22;9172;49.948;9.208;2022-09-09T12:41:22;21.00;99.00
18091;DHT22;9172;49.948;9.208;2022-09-09T12:44:03;21.00;99.70
18091;DHT22;9172;49.948;9.208;2022-09-09T12:46:35;21.10;99.80
18091;DHT22;9172;49.948;9.208;2022-09-09T12:49:04;21.10;99.50
18091;DHT22;9172;49.948;9.208;2022-09-09T12:51:34;21.10;99.90
18091;DHT22;9172;49.948;9.208;2022-09-09T12:54:04;21.10;99.70
18091;DHT22;9172;49.948;9.208;2022-09-09T12:56:34;21.10;99.90
18091;DHT22;9172;49.948;9.208;2022-09-09T12:59:04;21.20;99.90
18091;DHT22;9172;49.948;9.208;2022-09-09T13:01:34;21.20;99.80
18091;DHT22;9172;49.948;9.208;2022-09-09T13:04:15;21.30;99.80
18091;DHT22;9172;49.948;9.208;2022-09-09T13:06:45;21.20;99.80
18091;DHT22;9172;49.948;9.208;2022-09-09T13:09:14;21.10;99.90
18091;DHT22;9172;49.948;9.208;2022-09-09T13:11:46;21.00;99.80
18091;DHT22;9172;49.948;9.208;2022-09-09T13:14:17;20.90;99.90
18091;DHT22;9172;49.948;9.208;2022-09-09T13:16:57;20.80;99.90
18091;DHT22;9172;49.948;9.208;2022-09-09T13:19:26;20.80;99.90
18091;DHT22;9172;49.948;9.208;2022-09-09T13:21:56;20.80;99.90
18091;DHT22;9172;49.948;9.208;2022-09-09T13:24:28;20.70;99.90
18091;DHT22;9172;49.948;9.208;2022-09-09T13:26:58;20.60;99.60
18091;DHT22;9172;49.948;9.208;2022-09-09T13:29:30;20.50;99.60
18091;DHT22;9172;49.948;9.208;2022-09-09T13:32:05;20.40;99.80
18091;DHT22;9172;49.948;9.208;2022-09-09T13:34:35;20.40;99.80
18091;DHT22;9172;49.948;9.208;2022-09-09T13:37:06;20.40;99.90
18091;DHT22;9172;49.948;9.208;2022-09-09T13:39:36;20.40;99.90
18091;DHT22;9172;49.948;9.208;2022-09-09T13:42:19;20.30;99.70
18091;DHT22;9172;49.948;9.208;2022-09-09T13:44:47;20.30;99.90
18091;DHT22;9172;49.948;9.208;2022-09-09T13:47:20;20.40;99.90
18091;DHT22;9172;49.948;9.208;2022-09-09T13:49:50;20.30;99.90
18091;DHT22;9172;49.948;9.208;2022-09-09T13:52:19;20.20;99.60
18091;DHT22;9172;49.948;9.208;2022-09-09T13:54:50;20.10;99.40
18091;DHT22;9172;49.948;9.208;2022-09-09T13:57:20;20.10;99.70
18091;DHT22;9172;49.948;9.208;2022-09-09T13:59:50;20.10;99.90
18091;DHT22;9172;49.948;9.208;2022-09-09T14:02:20;20.10;99.90
18091;DHT22;9172;49.948;9.208;2022-09-09T14:04:50;20.10;99.90
18091;DHT22;9172;49.948;9.208;2022-09-09T14:07:20;20.20;99.90
18091;DHT22;9172;49.948;9.208;2022-09-09T14:09:50;20.10;99.90
18091;DHT22;9172;49.948;9.208;2022-09-09T14:12:20;20.10;99.90
18091;DHT22;9172;49.948;9.208;2022-09-09T14:14:49;20.10;99.90
18091;DHT22;9172;49.948;9.208;2022-09-09T14:17:18;20.10;99.90
18091;DHT22;9172;49.948;9.208;2022-09-09T14:19:46;20.10;99.90
18091;DHT22;9172;49.948;9.208;2022-09-09T14:22:15;20.00;99.90
18091;DHT22;9172;49.948;9.208;2022-09-09T14:24:44;20.00;99.90
18091;DHT22;9172;49.948;9.208;2022-09-09T14:27:13;20.00;99.90
18091;DHT22;9172;49.948;9.208;2022-09-09T14:29:43;20.00;99.90
18091;DHT22;9172;49.948;9.208;2022-09-09T14:32:11;19.90;99.90
18091;DHT22;9172;49.948;9.208;2022-09-09T14:34:40;19.90;99.90
18091;DHT22;9172;49.948;9.208;2022-09-09T14:37:08;19.90;99.90
18091;DHT22;9172;49.948;9.208;2022-09-09T14:39:37;19.90;99.90
18091;DHT22;9172;49.948;9.208;2022-09-09T14:42:06;19.90;99.90
18091;DHT22;9172;49.948;9.208;2022-09-09T14:44:37;19.90;99.90
18091;DHT22;9172;49.948;9.208;2022-09-09T14:47:06;19.90;99.90
18091;DHT22;9172;49.948;9.208;2022-09-09T14:49:35;19.90;99.90
18091;DHT22;9172;49.948;9.208;2022-09-09T14:52:05;19.90;99.90
18091;DHT22;9172;49.948;9.208;2022-09-09T14:54:33;19.90;99.90
18091;DHT22;9172;49.948;9.208;2022-09-09T14:57:02;19.80;99.90
18091;DHT22;9172;49.948;9.208;2022-09-09T14:59:31;19.60;99.90
18091;DHT22;9172;49.948;9.208;2022-09-09T15:02:01;19.40;99.90
18091;DHT22;9172;49.948;9.208;2022-09-09T15:04:32;19.30;99.90
18091;DHT22;9172;49.948;9.208;2022-09-09T15:07:00;19.30;99.90
18091;DHT22;9172;49.948;9.208;2022-09-09T15:09:29;19.20;99.90
18091;DHT22;9172;49.948;9.208;2022-09-09T15:11:59;19.10;99.90
18091;DHT22;9172;49.948;9.208;2022-09-09T15:14:29;19.10;99.90
18091;DHT22;9172;49.948;9.208;2022-09-09T15:16:58;19.10;99.90
18091;DHT22;9172;49.948;9.208;2022-09-09T15:19:26;19.10;99.90
18091;DHT22;9172;49.948;9.208;2022-09-09T15:21:55;19.00;99.90
18091;DHT22;9172;49.948;9.208;2022-09-09T15:24:24;19.00;99.90
18091;DHT22;9172;49.948;9.208;2022-09-09T15:26:53;18.90;99.90
18091;DHT22;9172;49.948;9.208;2022-09-09T15:29:24;18.90;99.90
18091;DHT22;9172;49.948;9.208;2022-09-09T15:31:54;18.90;99.90
18091;DHT22;9172;49.948;9.208;2022-09-09T15:34:22;18.90;99.90
18091;DHT22;9172;49.948;9.208;2022-09-09T15:36:52;18.90;99.90
18091;DHT22;9172;49.948;9.208;2022-09-09T15:39:22;18.80;99.90
18091;DHT22;9172;49.948;9.208;2022-09-09T15:41:50;18.70;99.90
18091;DHT22;9172;49.948;9.208;2022-09-09T15:44:19;18.70;99.90
18091;DHT22;9172;49.948;9.208;2022-09-09T15:46:50;18.70;99.90
18091;DHT22;9172;49.948;9.208;2022-09-09T15:49:20;18.70;99.90
18091;DHT22;9172;49.948;9.208;2022-09-09T15:51:51;18.70;99.90
18091;DHT22;9172;49.948;9.208;2022-09-09T15:54:21;18.70;99.90
18091;DHT22;9172;49.948;9.208;2022-09-09T15:56:56;18.70;99.90
18091;DHT22;9172;49.948;9.208;2022-09-09T15:59:23;18.70;99.90
18091;DHT22;9172;49.948;9.208;2022-09-09T16:01:52;18.70;99.90
18091;DHT22;9172;49.948;9.208;2022-09-09T16:04:23;18.60;99.90
18091;DHT22;9172;49.948;9.208;2022-09-09T16:06:52;18.60;99.90
18091;DHT22;9172;49.948;9.208;2022-09-09T16:09:22;18.60;99.90
18091;DHT22;9172;49.948;9.208;2022-09-09T16:11:51;18.50;99.90
18091;DHT22;9172;49.948;9.208;2022-09-09T16:14:22;18.50;99.90
18091;DHT22;9172;49.948;9.208;2022-09-09T16:16:53;18.50;99.90
18091;DHT22;9172;49.948;9.208;2022-09-09T16:19:22;18.50;99.90
18091;DHT22;9172;49.948;9.208;2022-09-09T16:21:51;18.50;99.90
18091;DHT22;9172;49.948;9.208;2022-09-09T16:24:20;18.50;99.90
18091;DHT22;9172;49.948;9.208;2022-09-09T16:26:51;18.50;99.90
18091;DHT22;9172;49.948;9.208;2022-09-09T16:29:22;18.60;99.90
18091;DHT22;9172;49.948;9.208;2022-09-09T16:31:54;18.60;99.90
18091;DHT22;9172;49.948;9.208;2022-09-09T16:34:23;18.60;99.90
18091;DHT22;9172;49.948;9.208;2022-09-09T16:36:53;18.60;99.90
18091;DHT22;9172;49.948;9.208;2022-09-09T16:39:21;18.50;99.90
18091;DHT22;9172;49.948;9.208;2022-09-09T16:41:50;18.50;99.90
18091;DHT22;9172;49.948;9.208;2022-09-09T16:44:19;18.40;99.90